Terminal Aerodrome Forecast
Issued by NWS Topeka, KS

Home | Current Version | Previous Version | Text Only | Print | Product List | Glossary Off
Versions: 1 2 3 4 5 6 7 8 9 10 11 12 13 14 15 16

163
FTUS43 KTOP 081329 AAA
TAFTOP
TAF AMD
KTOP 081329Z 0813/0912 30018G30KT P6SM OVC040
      TEMPO 0813/0815 3SM -SHSN SCT025 OVC040
     FM081500 32026G38KT P6SM SCT025 OVC035
     FM082300 32022G30KT P6SM BKN035
     FM090300 31016G24KT P6SM SCT040=

USA.gov is the U.S. government's official web portal to all federal, state and local government web resources and services.